sensor_id;sensor_type;location;lat;lon;timestamp;P1;durP1;ratioP1;P2;durP2;ratioP2
69594;SDS011;56800;52.142;5.364;2023-12-14T00:01:46;17.98;;;9.63;;
69594;SDS011;56800;52.142;5.364;2023-12-14T00:04:14;16.00;;;9.70;;
69594;SDS011;56800;52.142;5.364;2023-12-14T00:06:41;18.30;;;9.50;;
69594;SDS011;56800;52.142;5.364;2023-12-14T00:09:08;15.57;;;9.65;;
69594;SDS011;56800;52.142;5.364;2023-12-14T00:11:38;15.88;;;9.70;;
69594;SDS011;56800;52.142;5.364;2023-12-14T00:14:05;18.67;;;9.73;;
69594;SDS011;56800;52.142;5.364;2023-12-14T00:16:32;15.40;;;9.23;;
69594;SDS011;56800;52.142;5.364;2023-12-14T00:18:59;15.75;;;9.45;;
69594;SDS011;56800;52.142;5.364;2023-12-14T00:21:26;17.33;;;10.02;;
69594;SDS011;56800;52.142;5.364;2023-12-14T00:23:53;15.13;;;9.73;;
69594;SDS011;56800;52.142;5.364;2023-12-14T00:26:20;15.48;;;9.68;;
69594;SDS011;56800;52.142;5.364;2023-12-14T00:28:46;12.83;;;9.10;;
69594;SDS011;56800;52.142;5.364;2023-12-14T00:31:13;16.52;;;9.82;;
69594;SDS011;56800;52.142;5.364;2023-12-14T00:33:40;15.63;;;9.20;;
69594;SDS011;56800;52.142;5.364;2023-12-14T00:36:07;14.05;;;9.27;;
69594;SDS011;56800;52.142;5.364;2023-12-14T00:38:34;12.52;;;8.30;;
69594;SDS011;56800;52.142;5.364;2023-12-14T00:41:00;13.77;;;8.90;;
69594;SDS011;56800;52.142;5.364;2023-12-14T00:43:27;16.50;;;8.25;;
69594;SDS011;56800;52.142;5.364;2023-12-14T00:45:54;16.92;;;8.95;;
69594;SDS011;56800;52.142;5.364;2023-12-14T00:48:21;18.33;;;9.25;;
69594;SDS011;56800;52.142;5.364;2023-12-14T00:50:48;13.27;;;8.55;;
69594;SDS011;56800;52.142;5.364;2023-12-14T00:53:14;12.67;;;8.90;;
69594;SDS011;56800;52.142;5.364;2023-12-14T00:55:41;12.90;;;8.27;;
69594;SDS011;56800;52.142;5.364;2023-12-14T00:58:08;12.77;;;8.70;;
69594;SDS011;56800;52.142;5.364;2023-12-14T01:00:35;13.38;;;9.15;;
69594;SDS011;56800;52.142;5.364;2023-12-14T01:03:01;14.00;;;9.07;;
69594;SDS011;56800;52.142;5.364;2023-12-14T01:05:29;13.27;;;8.93;;
69594;SDS011;56800;52.142;5.364;2023-12-14T01:07:55;14.30;;;8.50;;
69594;SDS011;56800;52.142;5.364;2023-12-14T01:10:22;17.15;;;9.43;;
69594;SDS011;56800;52.142;5.364;2023-12-14T01:12:49;14.27;;;9.63;;
69594;SDS011;56800;52.142;5.364;2023-12-14T01:15:16;13.70;;;8.98;;
69594;SDS011;56800;52.142;5.364;2023-12-14T01:17:43;13.37;;;9.07;;
69594;SDS011;56800;52.142;5.364;2023-12-14T01:20:10;15.15;;;9.57;;
69594;SDS011;56800;52.142;5.364;2023-12-14T01:22:37;12.70;;;8.85;;
69594;SDS011;56800;52.142;5.364;2023-12-14T01:25:04;15.95;;;9.30;;
69594;SDS011;56800;52.142;5.364;2023-12-14T01:27:31;16.33;;;9.32;;
69594;SDS011;56800;52.142;5.364;2023-12-14T01:29:57;12.70;;;9.23;;
69594;SDS011;56800;52.142;5.364;2023-12-14T01:32:24;13.68;;;8.77;;
69594;SDS011;56800;52.142;5.364;2023-12-14T01:34:51;13.65;;;8.80;;
69594;SDS011;56800;52.142;5.364;2023-12-14T01:37:17;13.13;;;8.73;;
69594;SDS011;56800;52.142;5.364;2023-12-14T01:39:44;13.88;;;8.75;;
69594;SDS011;56800;52.142;5.364;2023-12-14T01:42:11;16.30;;;9.43;;
69594;SDS011;56800;52.142;5.364;2023-12-14T01:44:37;17.65;;;9.52;;
69594;SDS011;56800;52.142;5.364;2023-12-14T01:47:04;15.85;;;8.63;;
69594;SDS011;56800;52.142;5.364;2023-12-14T01:49:31;14.93;;;9.52;;
69594;SDS011;56800;52.142;5.364;2023-12-14T01:51:58;16.10;;;9.93;;
69594;SDS011;56800;52.142;5.364;2023-12-14T01:54:24;13.83;;;9.37;;
69594;SDS011;56800;52.142;5.364;2023-12-14T01:56:51;12.68;;;9.13;;
69594;SDS011;56800;52.142;5.364;2023-12-14T01:59:19;13.07;;;9.00;;
69594;SDS011;56800;52.142;5.364;2023-12-14T02:01:46;12.52;;;8.68;;
69594;SDS011;56800;52.142;5.364;2023-12-14T02:04:23;14.02;;;9.10;;
69594;SDS011;56800;52.142;5.364;2023-12-14T02:06:51;13.97;;;9.37;;
69594;SDS011;56800;52.142;5.364;2023-12-14T02:09:18;13.38;;;9.40;;
69594;SDS011;56800;52.142;5.364;2023-12-14T02:11:44;13.82;;;8.57;;
69594;SDS011;56800;52.142;5.364;2023-12-14T02:14:11;12.82;;;8.98;;
69594;SDS011;56800;52.142;5.364;2023-12-14T02:16:38;12.77;;;8.90;;
69594;SDS011;56800;52.142;5.364;2023-12-14T02:19:05;13.77;;;9.00;;
69594;SDS011;56800;52.142;5.364;2023-12-14T02:21:32;14.10;;;9.20;;
69594;SDS011;56800;52.142;5.364;2023-12-14T02:23:59;14.45;;;9.10;;
69594;SDS011;56800;52.142;5.364;2023-12-14T02:26:26;13.40;;;9.10;;
69594;SDS011;56800;52.142;5.364;2023-12-14T02:28:52;12.85;;;9.00;;
69594;SDS011;56800;52.142;5.364;2023-12-14T02:31:19;11.83;;;8.57;;
69594;SDS011;56800;52.142;5.364;2023-12-14T02:33:46;13.30;;;8.98;;
69594;SDS011;56800;52.142;5.364;2023-12-14T02:36:13;12.95;;;9.40;;
69594;SDS011;56800;52.142;5.364;2023-12-14T02:38:40;14.07;;;8.95;;
69594;SDS011;56800;52.142;5.364;2023-12-14T02:41:07;15.63;;;9.02;;
69594;SDS011;56800;52.142;5.364;2023-12-14T02:43:34;13.80;;;8.80;;
69594;SDS011;56800;52.142;5.364;2023-12-14T02:46:00;13.65;;;9.55;;
69594;SDS011;56800;52.142;5.364;2023-12-14T02:48:29;13.10;;;9.52;;
69594;SDS011;56800;52.142;5.364;2023-12-14T02:50:56;13.85;;;9.40;;
69594;SDS011;56800;52.142;5.364;2023-12-14T02:53:23;13.57;;;9.88;;
69594;SDS011;56800;52.142;5.364;2023-12-14T02:55:50;12.93;;;9.20;;
69594;SDS011;56800;52.142;5.364;2023-12-14T02:58:18;15.23;;;10.32;;
69594;SDS011;56800;52.142;5.364;2023-12-14T03:00:45;12.68;;;9.25;;
69594;SDS011;56800;52.142;5.364;2023-12-14T03:03:11;16.90;;;9.93;;
69594;SDS011;56800;52.142;5.364;2023-12-14T03:05:38;15.10;;;9.77;;
69594;SDS011;56800;52.142;5.364;2023-12-14T03:08:05;14.57;;;9.67;;
69594;SDS011;56800;52.142;5.364;2023-12-14T03:10:32;14.80;;;9.77;;
69594;SDS011;56800;52.142;5.364;2023-12-14T03:12:59;15.57;;;9.27;;
69594;SDS011;56800;52.142;5.364;2023-12-14T03:15:25;12.95;;;9.02;;
69594;SDS011;56800;52.142;5.364;2023-12-14T03:17:52;13.80;;;9.60;;
69594;SDS011;56800;52.142;5.364;2023-12-14T03:20:19;15.13;;;9.70;;
69594;SDS011;56800;52.142;5.364;2023-12-14T03:22:45;14.65;;;9.88;;
69594;SDS011;56800;52.142;5.364;2023-12-14T03:25:12;16.75;;;10.27;;
69594;SDS011;56800;52.142;5.364;2023-12-14T03:27:39;14.73;;;9.57;;
69594;SDS011;56800;52.142;5.364;2023-12-14T03:30:06;17.40;;;9.60;;
69594;SDS011;56800;52.142;5.364;2023-12-14T03:32:34;16.67;;;10.00;;
69594;SDS011;56800;52.142;5.364;2023-12-14T03:35:02;16.35;;;9.30;;
69594;SDS011;56800;52.142;5.364;2023-12-14T03:37:29;18.45;;;10.02;;
69594;SDS011;56800;52.142;5.364;2023-12-14T03:39:55;18.67;;;10.82;;
69594;SDS011;56800;52.142;5.364;2023-12-14T03:42:22;19.10;;;11.30;;
69594;SDS011;56800;52.142;5.364;2023-12-14T03:44:49;18.40;;;10.77;;
69594;SDS011;56800;52.142;5.364;2023-12-14T03:47:16;21.33;;;10.93;;
69594;SDS011;56800;52.142;5.364;2023-12-14T03:49:42;20.80;;;10.40;;
69594;SDS011;56800;52.142;5.364;2023-12-14T03:52:09;17.90;;;10.82;;
69594;SDS011;56800;52.142;5.364;2023-12-14T03:54:36;19.55;;;11.15;;
69594;SDS011;56800;52.142;5.364;2023-12-14T03:57:03;20.67;;;10.93;;
69594;SDS011;56800;52.142;5.364;2023-12-14T03:59:29;24.35;;;11.10;;
69594;SDS011;56800;52.142;5.364;2023-12-14T04:01:58;20.67;;;10.77;;
69594;SDS011;56800;52.142;5.364;2023-12-14T04:04:25;17.88;;;10.90;;
69594;SDS011;56800;52.142;5.364;2023-12-14T04:06:52;21.60;;;10.38;;
69594;SDS011;56800;52.142;5.364;2023-12-14T04:09:18;17.07;;;10.60;;
69594;SDS011;56800;52.142;5.364;2023-12-14T04:11:45;19.92;;;10.30;;
69594;SDS011;56800;52.142;5.364;2023-12-14T04:14:12;18.00;;;9.98;;
69594;SDS011;56800;52.142;5.364;2023-12-14T04:16:39;19.20;;;10.50;;
69594;SDS011;56800;52.142;5.364;2023-12-14T04:19:06;15.93;;;9.60;;
69594;SDS011;56800;52.142;5.364;2023-12-14T04:21:36;19.47;;;10.80;;
69594;SDS011;56800;52.142;5.364;2023-12-14T04:24:03;17.15;;;9.75;;
69594;SDS011;56800;52.142;5.364;2023-12-14T04:26:30;18.20;;;9.73;;
69594;SDS011;56800;52.142;5.364;2023-12-14T04:28:57;16.38;;;9.25;;
69594;SDS011;56800;52.142;5.364;2023-12-14T04:31:24;15.75;;;8.55;;
69594;SDS011;56800;52.142;5.364;2023-12-14T04:33:51;12.83;;;8.23;;
69594;SDS011;56800;52.142;5.364;2023-12-14T04:36:17;13.20;;;7.82;;
69594;SDS011;56800;52.142;5.364;2023-12-14T04:38:44;12.40;;;7.75;;
69594;SDS011;56800;52.142;5.364;2023-12-14T04:41:12;16.73;;;7.97;;
69594;SDS011;56800;52.142;5.364;2023-12-14T04:43:40;15.50;;;7.63;;
69594;SDS011;56800;52.142;5.364;2023-12-14T04:46:06;13.80;;;7.07;;
69594;SDS011;56800;52.142;5.364;2023-12-14T04:48:33;18.25;;;7.18;;
69594;SDS011;56800;52.142;5.364;2023-12-14T04:51:00;18.23;;;8.13;;
69594;SDS011;56800;52.142;5.364;2023-12-14T04:53:27;17.23;;;7.22;;
69594;SDS011;56800;52.142;5.364;2023-12-14T04:55:54;17.58;;;7.30;;
69594;SDS011;56800;52.142;5.364;2023-12-14T04:58:20;16.27;;;7.50;;
69594;SDS011;56800;52.142;5.364;2023-12-14T05:00:47;14.50;;;6.75;;
69594;SDS011;56800;52.142;5.364;2023-12-14T05:03:14;15.20;;;7.20;;
69594;SDS011;56800;52.142;5.364;2023-12-14T05:05:41;14.98;;;6.93;;
69594;SDS011;56800;52.142;5.364;2023-12-14T05:08:08;13.68;;;7.10;;
69594;SDS011;56800;52.142;5.364;2023-12-14T05:10:35;13.03;;;6.80;;
69594;SDS011;56800;52.142;5.364;2023-12-14T05:13:02;12.02;;;6.60;;
69594;SDS011;56800;52.142;5.364;2023-12-14T05:15:29;18.02;;;7.53;;
69594;SDS011;56800;52.142;5.364;2023-12-14T05:17:56;9.63;;;6.85;;
69594;SDS011;56800;52.142;5.364;2023-12-14T05:20:24;11.50;;;6.45;;
69594;SDS011;56800;52.142;5.364;2023-12-14T05:22:51;11.60;;;6.27;;
69594;SDS011;56800;52.142;5.364;2023-12-14T05:25:17;13.80;;;6.40;;
69594;SDS011;56800;52.142;5.364;2023-12-14T05:27:44;10.48;;;6.47;;
69594;SDS011;56800;52.142;5.364;2023-12-14T05:30:11;13.43;;;6.43;;
69594;SDS011;56800;52.142;5.364;2023-12-14T05:32:38;16.25;;;6.10;;
69594;SDS011;56800;52.142;5.364;2023-12-14T05:35:05;12.10;;;5.93;;
69594;SDS011;56800;52.142;5.364;2023-12-14T05:37:32;13.57;;;6.43;;
69594;SDS011;56800;52.142;5.364;2023-12-14T05:39:59;10.80;;;6.30;;
69594;SDS011;56800;52.142;5.364;2023-12-14T05:42:26;10.02;;;5.72;;
69594;SDS011;56800;52.142;5.364;2023-12-14T05:44:52;8.20;;;5.93;;
69594;SDS011;56800;52.142;5.364;2023-12-14T05:47:19;11.00;;;6.17;;
69594;SDS011;56800;52.142;5.364;2023-12-14T05:49:46;11.27;;;5.80;;
69594;SDS011;56800;52.142;5.364;2023-12-14T05:52:13;13.30;;;6.63;;
69594;SDS011;56800;52.142;5.364;2023-12-14T05:54:39;11.50;;;6.05;;
69594;SDS011;56800;52.142;5.364;2023-12-14T05:57:06;12.63;;;6.00;;
69594;SDS011;56800;52.142;5.364;2023-12-14T05:59:33;13.87;;;5.83;;
69594;SDS011;56800;52.142;5.364;2023-12-14T06:02:00;10.57;;;6.15;;
69594;SDS011;56800;52.142;5.364;2023-12-14T06:04:27;9.55;;;6.00;;
69594;SDS011;56800;52.142;5.364;2023-12-14T06:06:54;8.43;;;5.28;;
69594;SDS011;56800;52.142;5.364;2023-12-14T06:09:21;9.85;;;5.75;;
69594;SDS011;56800;52.142;5.364;2023-12-14T06:11:48;13.20;;;6.40;;
69594;SDS011;56800;52.142;5.364;2023-12-14T06:14:14;10.38;;;6.20;;
69594;SDS011;56800;52.142;5.364;2023-12-14T06:16:42;10.88;;;6.30;;
69594;SDS011;56800;52.142;5.364;2023-12-14T06:19:09;10.75;;;6.30;;
69594;SDS011;56800;52.142;5.364;2023-12-14T06:21:36;8.75;;;5.90;;
69594;SDS011;56800;52.142;5.364;2023-12-14T06:24:03;8.70;;;5.93;;
69594;SDS011;56800;52.142;5.364;2023-12-14T06:26:30;10.20;;;5.97;;
69594;SDS011;56800;52.142;5.364;2023-12-14T06:28:57;13.48;;;6.28;;
69594;SDS011;56800;52.142;5.364;2023-12-14T06:31:24;9.95;;;5.78;;
69594;SDS011;56800;52.142;5.364;2023-12-14T06:33:50;9.75;;;5.72;;
69594;SDS011;56800;52.142;5.364;2023-12-14T06:36:17;9.57;;;5.90;;
69594;SDS011;56800;52.142;5.364;2023-12-14T06:38:44;9.13;;;5.80;;
69594;SDS011;56800;52.142;5.364;2023-12-14T06:41:23;8.70;;;5.93;;
69594;SDS011;56800;52.142;5.364;2023-12-14T06:43:51;10.38;;;5.90;;
69594;SDS011;56800;52.142;5.364;2023-12-14T06:46:18;9.75;;;6.00;;
69594;SDS011;56800;52.142;5.364;2023-12-14T06:48:45;10.07;;;5.63;;
69594;SDS011;56800;52.142;5.364;2023-12-14T06:51:13;11.75;;;6.43;;
69594;SDS011;56800;52.142;5.364;2023-12-14T06:53:40;8.95;;;5.55;;
69594;SDS011;56800;52.142;5.364;2023-12-14T06:56:08;8.48;;;5.70;;
69594;SDS011;56800;52.142;5.364;2023-12-14T06:58:40;9.40;;;5.28;;
69594;SDS011;56800;52.142;5.364;2023-12-14T07:01:16;8.43;;;5.77;;
69594;SDS011;56800;52.142;5.364;2023-12-14T07:03:46;10.85;;;6.10;;
69594;SDS011;56800;52.142;5.364;2023-12-14T07:06:14;9.55;;;6.18;;
69594;SDS011;56800;52.142;5.364;2023-12-14T07:08:42;10.60;;;6.15;;
69594;SDS011;56800;52.142;5.364;2023-12-14T07:11:09;10.82;;;6.28;;
69594;SDS011;56800;52.142;5.364;2023-12-14T07:13:37;11.30;;;6.43;;
69594;SDS011;56800;52.142;5.364;2023-12-14T07:16:05;9.98;;;5.72;;
69594;SDS011;56800;52.142;5.364;2023-12-14T07:18:35;9.70;;;5.85;;
69594;SDS011;56800;52.142;5.364;2023-12-14T07:21:07;9.45;;;5.72;;
69594;SDS011;56800;52.142;5.364;2023-12-14T07:23:34;10.05;;;5.93;;
69594;SDS011;56800;52.142;5.364;2023-12-14T07:26:02;8.97;;;5.50;;
69594;SDS011;56800;52.142;5.364;2023-12-14T07:28:32;9.98;;;6.13;;
69594;SDS011;56800;52.142;5.364;2023-12-14T07:30:59;10.02;;;6.25;;
69594;SDS011;56800;52.142;5.364;2023-12-14T07:33:26;12.32;;;6.28;;
69594;SDS011;56800;52.142;5.364;2023-12-14T07:35:53;8.23;;;5.53;;
69594;SDS011;56800;52.142;5.364;2023-12-14T07:38:20;11.27;;;5.93;;
69594;SDS011;56800;52.142;5.364;2023-12-14T07:40:47;9.43;;;5.90;;
69594;SDS011;56800;52.142;5.364;2023-12-14T07:43:16;9.45;;;6.18;;
69594;SDS011;56800;52.142;5.364;2023-12-14T07:45:42;10.77;;;6.43;;
69594;SDS011;56800;52.142;5.364;2023-12-14T07:48:10;12.05;;;6.30;;
69594;SDS011;56800;52.142;5.364;2023-12-14T07:50:36;12.23;;;6.77;;
69594;SDS011;56800;52.142;5.364;2023-12-14T07:53:04;11.38;;;5.43;;
69594;SDS011;56800;52.142;5.364;2023-12-14T07:55:31;11.30;;;6.70;;
69594;SDS011;56800;52.142;5.364;2023-12-14T07:57:57;14.13;;;6.05;;
69594;SDS011;56800;52.142;5.364;2023-12-14T08:00:24;10.63;;;5.80;;
69594;SDS011;56800;52.142;5.364;2023-12-14T08:02:51;10.80;;;6.30;;
69594;SDS011;56800;52.142;5.364;2023-12-14T08:05:18;9.70;;;5.70;;
69594;SDS011;56800;52.142;5.364;2023-12-14T08:07:46;10.52;;;6.43;;
69594;SDS011;56800;52.142;5.364;2023-12-14T08:10:14;10.20;;;6.35;;
69594;SDS011;56800;52.142;5.364;2023-12-14T08:12:40;12.13;;;6.22;;
69594;SDS011;56800;52.142;5.364;2023-12-14T08:15:08;11.37;;;6.20;;
69594;SDS011;56800;52.142;5.364;2023-12-14T08:17:35;12.38;;;7.07;;
69594;SDS011;56800;52.142;5.364;2023-12-14T08:20:02;10.27;;;6.32;;
69594;SDS011;56800;52.142;5.364;2023-12-14T08:22:30;12.40;;;6.82;;
69594;SDS011;56800;52.142;5.364;2023-12-14T08:24:58;12.32;;;6.90;;
69594;SDS011;56800;52.142;5.364;2023-12-14T08:27:24;11.00;;;7.00;;
69594;SDS011;56800;52.142;5.364;2023-12-14T08:29:51;15.95;;;7.30;;
69594;SDS011;56800;52.142;5.364;2023-12-14T08:32:18;10.77;;;6.53;;
69594;SDS011;56800;52.142;5.364;2023-12-14T08:34:44;11.40;;;6.57;;
69594;SDS011;56800;52.142;5.364;2023-12-14T08:37:11;12.93;;;7.15;;
69594;SDS011;56800;52.142;5.364;2023-12-14T08:39:38;14.40;;;7.37;;
69594;SDS011;56800;52.142;5.364;2023-12-14T08:42:05;10.15;;;6.65;;
69594;SDS011;56800;52.142;5.364;2023-12-14T08:44:31;10.82;;;7.00;;
69594;SDS011;56800;52.142;5.364;2023-12-14T08:46:58;12.00;;;7.20;;
69594;SDS011;56800;52.142;5.364;2023-12-14T08:49:25;12.32;;;7.45;;
69594;SDS011;56800;52.142;5.364;2023-12-14T08:51:51;11.17;;;7.07;;
69594;SDS011;56800;52.142;5.364;2023-12-14T08:54:18;11.77;;;6.93;;
69594;SDS011;56800;52.142;5.364;2023-12-14T08:56:45;12.57;;;7.18;;
69594;SDS011;56800;52.142;5.364;2023-12-14T08:59:12;15.40;;;7.78;;
69594;SDS011;56800;52.142;5.364;2023-12-14T09:01:39;12.93;;;6.93;;
69594;SDS011;56800;52.142;5.364;2023-12-14T09:04:06;9.90;;;7.20;;
69594;SDS011;56800;52.142;5.364;2023-12-14T09:13:51;14.15;;;7.18;;
69594;SDS011;56800;52.142;5.364;2023-12-14T09:16:18;11.40;;;7.40;;
69594;SDS011;56800;52.142;5.364;2023-12-14T09:18:45;13.83;;;7.73;;
69594;SDS011;56800;52.142;5.364;2023-12-14T09:21:12;14.63;;;7.45;;
69594;SDS011;56800;52.142;5.364;2023-12-14T09:23:39;14.07;;;7.50;;
69594;SDS011;56800;52.142;5.364;2023-12-14T09:26:07;12.02;;;7.15;;
69594;SDS011;56800;52.142;5.364;2023-12-14T09:28:34;11.82;;;6.93;;
69594;SDS011;56800;52.142;5.364;2023-12-14T09:31:00;11.30;;;6.70;;
69594;SDS011;56800;52.142;5.364;2023-12-14T09:33:29;12.63;;;7.13;;
69594;SDS011;56800;52.142;5.364;2023-12-14T09:35:56;13.68;;;7.07;;
69594;SDS011;56800;52.142;5.364;2023-12-14T09:38:23;11.07;;;7.22;;
69594;SDS011;56800;52.142;5.364;2023-12-14T09:40:50;13.95;;;7.45;;
69594;SDS011;56800;52.142;5.364;2023-12-14T09:43:16;12.90;;;7.00;;
69594;SDS011;56800;52.142;5.364;2023-12-14T09:45:43;11.45;;;6.82;;
69594;SDS011;56800;52.142;5.364;2023-12-14T09:48:11;12.40;;;7.00;;
69594;SDS011;56800;52.142;5.364;2023-12-14T09:50:39;11.27;;;6.63;;
69594;SDS011;56800;52.142;5.364;2023-12-14T09:53:06;11.43;;;6.53;;
69594;SDS011;56800;52.142;5.364;2023-12-14T09:55:34;12.37;;;6.30;;
69594;SDS011;56800;52.142;5.364;2023-12-14T09:58:01;10.20;;;6.30;;
69594;SDS011;56800;52.142;5.364;2023-12-14T10:00:33;10.35;;;6.53;;
69594;SDS011;56800;52.142;5.364;2023-12-14T10:03:22;11.70;;;6.70;;
69594;SDS011;56800;52.142;5.364;2023-12-14T10:05:53;10.43;;;6.28;;
69594;SDS011;56800;52.142;5.364;2023-12-14T10:08:21;9.53;;;6.17;;
69594;SDS011;56800;52.142;5.364;2023-12-14T10:10:50;13.38;;;6.00;;
69594;SDS011;56800;52.142;5.364;2023-12-14T10:13:20;10.70;;;5.93;;
69594;SDS011;56800;52.142;5.364;2023-12-14T10:15:48;14.25;;;6.28;;
69594;SDS011;56800;52.142;5.364;2023-12-14T10:18:21;11.00;;;6.35;;
69594;SDS011;56800;52.142;5.364;2023-12-14T10:20:51;10.50;;;6.47;;
69594;SDS011;56800;52.142;5.364;2023-12-14T10:23:18;12.55;;;6.75;;
69594;SDS011;56800;52.142;5.364;2023-12-14T10:25:45;8.77;;;6.13;;
69594;SDS011;56800;52.142;5.364;2023-12-14T10:28:13;10.85;;;6.18;;
69594;SDS011;56800;52.142;5.364;2023-12-14T10:30:40;9.35;;;5.80;;
69594;SDS011;56800;52.142;5.364;2023-12-14T10:33:08;7.73;;;5.00;;
69594;SDS011;56800;52.142;5.364;2023-12-14T10:35:35;9.90;;;5.93;;
69594;SDS011;56800;52.142;5.364;2023-12-14T10:38:03;8.77;;;6.38;;
69594;SDS011;56800;52.142;5.364;2023-12-14T10:40:31;8.77;;;5.63;;
69594;SDS011;56800;52.142;5.364;2023-12-14T10:42:59;9.45;;;5.10;;
69594;SDS011;56800;52.142;5.364;2023-12-14T10:45:29;10.73;;;5.57;;
69594;SDS011;56800;52.142;5.364;2023-12-14T10:47:59;8.60;;;5.60;;
69594;SDS011;56800;52.142;5.364;2023-12-14T10:50:30;9.45;;;5.93;;
69594;SDS011;56800;52.142;5.364;2023-12-14T10:52:57;11.98;;;5.95;;
69594;SDS011;56800;52.142;5.364;2023-12-14T10:55:33;15.32;;;6.13;;
69594;SDS011;56800;52.142;5.364;2023-12-14T10:58:04;7.70;;;5.33;;
69594;SDS011;56800;52.142;5.364;2023-12-14T11:00:31;10.43;;;6.03;;
69594;SDS011;56800;52.142;5.364;2023-12-14T11:02:58;9.68;;;5.78;;
69594;SDS011;56800;52.142;5.364;2023-12-14T11:05:26;9.85;;;5.70;;
69594;SDS011;56800;52.142;5.364;2023-12-14T11:08:01;8.93;;;6.20;;
69594;SDS011;56800;52.142;5.364;2023-12-14T11:10:41;8.80;;;5.90;;
69594;SDS011;56800;52.142;5.364;2023-12-14T11:13:10;9.13;;;6.22;;
69594;SDS011;56800;52.142;5.364;2023-12-14T11:15:46;11.10;;;6.32;;
69594;SDS011;56800;52.142;5.364;2023-12-14T11:20:50;9.02;;;5.57;;
69594;SDS011;56800;52.142;5.364;2023-12-14T11:25:52;9.23;;;5.50;;
69594;SDS011;56800;52.142;5.364;2023-12-14T11:28:24;9.95;;;5.95;;
69594;SDS011;56800;52.142;5.364;2023-12-14T11:30:54;10.82;;;6.05;;
69594;SDS011;56800;52.142;5.364;2023-12-14T11:33:21;8.75;;;5.35;;
69594;SDS011;56800;52.142;5.364;2023-12-14T11:35:53;10.00;;;5.57;;
69594;SDS011;56800;52.142;5.364;2023-12-14T11:38:19;13.50;;;6.47;;
69594;SDS011;56800;52.142;5.364;2023-12-14T11:40:48;11.30;;;6.20;;
69594;SDS011;56800;52.142;5.364;2023-12-14T11:43:15;8.75;;;5.78;;
69594;SDS011;56800;52.142;5.364;2023-12-14T11:45:42;9.43;;;5.28;;
69594;SDS011;56800;52.142;5.364;2023-12-14T11:48:10;10.67;;;5.60;;
69594;SDS011;56800;52.142;5.364;2023-12-14T11:50:39;8.30;;;5.85;;
69594;SDS011;56800;52.142;5.364;2023-12-14T11:53:09;11.40;;;5.82;;
69594;SDS011;56800;52.142;5.364;2023-12-14T11:55:36;9.30;;;5.88;;
69594;SDS011;56800;52.142;5.364;2023-12-14T11:58:05;9.27;;;5.30;;
69594;SDS011;56800;52.142;5.364;2023-12-14T12:00:33;10.30;;;5.47;;
69594;SDS011;56800;52.142;5.364;2023-12-14T12:05:38;9.05;;;5.82;;
69594;SDS011;56800;52.142;5.364;2023-12-14T12:08:07;9.23;;;5.93;;
69594;SDS011;56800;52.142;5.364;2023-12-14T12:10:36;9.55;;;6.00;;
69594;SDS011;56800;52.142;5.364;2023-12-14T12:13:04;10.07;;;6.03;;
69594;SDS011;56800;52.142;5.364;2023-12-14T12:15:33;8.85;;;5.60;;
69594;SDS011;56800;52.142;5.364;2023-12-14T12:18:03;10.07;;;5.75;;
69594;SDS011;56800;52.142;5.364;2023-12-14T12:20:32;7.93;;;5.55;;
69594;SDS011;56800;52.142;5.364;2023-12-14T12:22:59;9.10;;;5.38;;
69594;SDS011;56800;52.142;5.364;2023-12-14T12:25:26;9.43;;;5.30;;
69594;SDS011;56800;52.142;5.364;2023-12-14T12:27:54;8.23;;;4.82;;
69594;SDS011;56800;52.142;5.364;2023-12-14T12:30:24;8.77;;;5.20;;
69594;SDS011;56800;52.142;5.364;2023-12-14T12:32:51;9.93;;;5.00;;
69594;SDS011;56800;52.142;5.364;2023-12-14T12:35:19;9.30;;;5.10;;
69594;SDS011;56800;52.142;5.364;2023-12-14T12:37:46;12.67;;;5.30;;
69594;SDS011;56800;52.142;5.364;2023-12-14T12:40:13;10.63;;;4.72;;
69594;SDS011;56800;52.142;5.364;2023-12-14T12:42:42;8.80;;;4.78;;
69594;SDS011;56800;52.142;5.364;2023-12-14T12:45:09;8.10;;;4.22;;
69594;SDS011;56800;52.142;5.364;2023-12-14T12:47:36;7.07;;;4.07;;
69594;SDS011;56800;52.142;5.364;2023-12-14T12:50:04;7.83;;;4.40;;
69594;SDS011;56800;52.142;5.364;2023-12-14T12:52:32;7.35;;;3.80;;
69594;SDS011;56800;52.142;5.364;2023-12-14T12:54:59;9.48;;;4.35;;
69594;SDS011;56800;52.142;5.364;2023-12-14T12:57:26;10.27;;;4.20;;
69594;SDS011;56800;52.142;5.364;2023-12-14T12:59:53;8.40;;;4.28;;
69594;SDS011;56800;52.142;5.364;2023-12-14T13:02:20;9.87;;;3.90;;
69594;SDS011;56800;52.142;5.364;2023-12-14T13:04:47;8.05;;;3.40;;
69594;SDS011;56800;52.142;5.364;2023-12-14T13:07:14;8.77;;;3.60;;
69594;SDS011;56800;52.142;5.364;2023-12-14T13:09:40;6.30;;;3.67;;
69594;SDS011;56800;52.142;5.364;2023-12-14T13:12:07;6.38;;;3.47;;
69594;SDS011;56800;52.142;5.364;2023-12-14T13:14:36;5.13;;;3.00;;
69594;SDS011;56800;52.142;5.364;2023-12-14T13:17:03;8.20;;;3.22;;
69594;SDS011;56800;52.142;5.364;2023-12-14T13:19:29;6.10;;;3.80;;
69594;SDS011;56800;52.142;5.364;2023-12-14T13:21:56;8.40;;;3.90;;
69594;SDS011;56800;52.142;5.364;2023-12-14T13:24:24;8.00;;;3.63;;
69594;SDS011;56800;52.142;5.364;2023-12-14T13:26:51;5.90;;;3.60;;
69594;SDS011;56800;52.142;5.364;2023-12-14T13:29:17;8.82;;;3.72;;
69594;SDS011;56800;52.142;5.364;2023-12-14T13:31:44;6.95;;;3.40;;
69594;SDS011;56800;52.142;5.364;2023-12-14T13:34:11;7.88;;;3.10;;
69594;SDS011;56800;52.142;5.364;2023-12-14T13:36:38;6.47;;;3.38;;
69594;SDS011;56800;52.142;5.364;2023-12-14T13:39:04;5.70;;;3.17;;
69594;SDS011;56800;52.142;5.364;2023-12-14T13:41:32;6.10;;;3.45;;
69594;SDS011;56800;52.142;5.364;2023-12-14T13:44:15;7.82;;;3.92;;
69594;SDS011;56800;52.142;5.364;2023-12-14T13:46:42;12.05;;;4.05;;
69594;SDS011;56800;52.142;5.364;2023-12-14T13:49:09;7.47;;;3.97;;
69594;SDS011;56800;52.142;5.364;2023-12-14T13:51:36;8.87;;;4.00;;
69594;SDS011;56800;52.142;5.364;2023-12-14T13:54:03;7.30;;;3.67;;
69594;SDS011;56800;52.142;5.364;2023-12-14T13:56:30;7.68;;;4.07;;
69594;SDS011;56800;52.142;5.364;2023-12-14T13:58:57;6.95;;;4.18;;
69594;SDS011;56800;52.142;5.364;2023-12-14T14:01:24;9.35;;;4.38;;
69594;SDS011;56800;52.142;5.364;2023-12-14T14:03:51;8.07;;;4.60;;
69594;SDS011;56800;52.142;5.364;2023-12-14T14:06:18;13.43;;;4.32;;
69594;SDS011;56800;52.142;5.364;2023-12-14T14:08:47;7.43;;;4.32;;
69594;SDS011;56800;52.142;5.364;2023-12-14T14:11:14;7.95;;;4.40;;
69594;SDS011;56800;52.142;5.364;2023-12-14T14:13:40;7.63;;;4.63;;
69594;SDS011;56800;52.142;5.364;2023-12-14T14:16:07;7.33;;;3.70;;
69594;SDS011;56800;52.142;5.364;2023-12-14T14:18:34;7.55;;;4.22;;
69594;SDS011;56800;52.142;5.364;2023-12-14T14:21:01;7.25;;;4.63;;
69594;SDS011;56800;52.142;5.364;2023-12-14T14:23:28;8.43;;;4.78;;
69594;SDS011;56800;52.142;5.364;2023-12-14T14:25:57;8.95;;;4.43;;
69594;SDS011;56800;52.142;5.364;2023-12-14T14:28:24;10.00;;;4.90;;
69594;SDS011;56800;52.142;5.364;2023-12-14T14:30:52;8.45;;;4.05;;
69594;SDS011;56800;52.142;5.364;2023-12-14T14:33:19;8.27;;;4.93;;
69594;SDS011;56800;52.142;5.364;2023-12-14T14:35:46;10.00;;;4.55;;
69594;SDS011;56800;52.142;5.364;2023-12-14T14:38:13;8.70;;;5.43;;
69594;SDS011;56800;52.142;5.364;2023-12-14T14:40:41;9.30;;;5.57;;
69594;SDS011;56800;52.142;5.364;2023-12-14T14:43:08;11.07;;;5.68;;
69594;SDS011;56800;52.142;5.364;2023-12-14T14:45:35;11.88;;;5.57;;
69594;SDS011;56800;52.142;5.364;2023-12-14T14:48:04;9.65;;;5.53;;
69594;SDS011;56800;52.142;5.364;2023-12-14T14:50:35;11.27;;;5.82;;
69594;SDS011;56800;52.142;5.364;2023-12-14T14:53:02;8.70;;;5.53;;
69594;SDS011;56800;52.142;5.364;2023-12-14T14:55:29;9.55;;;5.85;;